Time;durP1;ratioP1;P1;durP2;ratioP2;P2;SDS_P1;SDS_P2;PMS_P1;PMS_P2;Temp;Humidity;BMP_temperature;BMP_pressure;BME280_temperature;BME280_humidity;BME280_pressure;Samples;Min_cycle;Max_cycle;Signal;HPM_P1;HPM_P2
2023/03/01 00:29:45;;;;;;;0.20;0.20;;;;;;;;;;5322465;23;20059;-77
2023/03/01 00:32:12;;;;;;;0.20;0.20;;;;;;;;;;4867551;29;20049;-76
2023/03/01 01:13:23;;;;;;;0.20;0.20;;;;;;;;;;4862889;29;20069;-76
2023/03/01 01:16:01;;;;;;;0.17;0.17;;;;;;;;;;4813025;29;20114;-76
2023/03/01 01:58:51;;;;;;;0.10;0.10;;;;;;;;;;4836124;29;20049;-77
2023/03/01 02:01:17;;;;;;;0.10;0.10;;;;;;;;;;4830394;29;20078;-77
2023/03/01 02:03:45;;;;;;;0.20;0.20;;;;;;;;;;4830932;29;20073;-77
2023/03/01 02:06:19;;;;;;;0.10;0.10;;;;;;;;;;4828296;29;20122;-77
2023/03/01 02:29:35;;;;;;;0.10;0.10;;;;;;;;;;4875276;23;20211;-77
2023/03/01 02:32:05;;;;;;;0.20;0.20;;;;;;;;;;4849935;29;20059;-77
2023/03/01 02:34:31;;;;;;;0.20;0.20;;;;;;;;;;4866885;29;20052;-77
2023/03/01 05:26:05;;;;;;;0.20;0.20;;;;;;;;;;5023510;23;20103;-77
2023/03/01 05:36:31;;;;;;;0.20;0.20;;;;;;;;;;4854637;23;20057;-78
2023/03/01 05:42:08;;;;;;;0.20;0.20;;;;;;;;;;4855132;29;20140;-78
2023/03/01 05:58:08;;;;;;;0.20;0.20;;;;;;;;;;4822272;29;20499;-79
2023/03/01 09:36:00;;;;;;;0.20;0.20;;;;;;;;;;4826923;29;20110;-82
2023/03/01 09:38:36;;;;;;;;;;;;;;;;;;;;;
2023/03/01 09:44:45;;;;;;;0.20;0.20;;;;;;;;;;4813588;29;20072;-81
2023/03/01 10:00:04;;;;;;;0.20;0.20;;;;;;;;;;5056091;23;20048;-78
2023/03/01 10:02:59;;;;;;;0.20;0.20;;;;;;;;;;4808646;29;20442;-77
2023/03/01 10:06:02;;;;;;;0.20;0.20;;;;;;;;;;4841541;29;20140;-78
2023/03/01 10:09:12;;;;;;;0.20;0.20;;;;;;;;;;4828875;29;20057;-76
2023/03/01 10:18:37;;;;;;;0.20;0.20;;;;;;;;;;4862134;29;20519;-77
2023/03/01 10:21:25;;;;;;;0.20;0.20;;;;;;;;;;4852207;29;20056;-77
2023/03/01 10:27:13;;;;;;;0.20;0.20;;;;;;;;;;4859565;29;20092;-78
2023/03/01 10:30:32;;;;;;;0.30;0.30;;;;;;;;;;4873579;29;20088;-77
2023/03/01 10:36:29;;;;;;;0.20;0.20;;;;;;;;;;4791528;29;20129;-78
2023/03/01 10:42:05;;;;;;;0.20;0.20;;;;;;;;;;4773383;29;20602;-78
2023/03/01 10:44:53;;;;;;;0.20;0.20;;;;;;;;;;4788620;29;20158;-78
2023/03/01 10:47:59;;;;;;;0.20;0.20;;;;;;;;;;4769553;29;20107;-78
2023/03/01 10:50:54;;;;;;;0.17;0.17;;;;;;;;;;4791738;29;20054;-78
2023/03/01 10:53:53;;;;;;;0.13;0.13;;;;;;;;;;4712094;30;20065;-77
2023/03/01 10:56:25;;;;;;;0.10;0.10;;;;;;;;;;4704246;30;20053;-78
2023/03/01 10:58:59;;;;;;;0.20;0.20;;;;;;;;;;4744178;23;20768;-78
2023/03/01 11:08:15;;;;;;;0.43;0.40;;;;;;;;;;4843306;29;20520;-78
2023/03/01 11:17:40;;;;;;;0.20;0.20;;;;;;;;;;4844727;29;20135;-77
2023/03/01 11:20:31;;;;;;;0.20;0.20;;;;;;;;;;4847945;29;20053;-78
2023/03/01 11:23:19;;;;;;;0.20;0.20;;;;;;;;;;4837694;29;20144;-78
2023/03/01 11:32:07;;;;;;;0.20;0.20;;;;;;;;;;4830242;29;20161;-76
2023/03/01 11:38:06;;;;;;;0.15;0.15;;;;;;;;;;4847825;29;20052;-78
2023/03/01 11:41:15;;;;;;;0.20;0.20;;;;;;;;;;4833864;29;20045;-80
2023/03/01 11:44:03;;;;;;;0.20;0.20;;;;;;;;;;4848578;29;20045;-78
2023/03/01 11:46:32;;;;;;;0.20;0.20;;;;;;;;;;4833932;29;20447;-79
2023/03/01 11:49:17;;;;;;;0.20;0.20;;;;;;;;;;4836609;29;20056;-77
2023/03/01 13:27:24;;;;;;;0.20;0.20;;;25.00;99.40;;;;;;4972285;28;20758;-77
2023/03/01 13:30:56;;;;;;;0.20;0.20;;;26.60;97.90;;;;;;4982856;28;20126;-76
2023/03/01 13:33:53;;;;;;;0.20;0.20;;;28.20;94.80;;;;;;4976145;28;20082;-75
2023/03/01 13:36:35;;;;;;;0.20;0.20;;;28.90;92.80;;;;;;4972480;28;20082;-76
2023/03/01 13:41:59;;;;;;;0.20;0.20;;;30.50;85.90;;;;;;4943062;23;20138;-76
2023/03/01 13:45:09;;;;;;;0.20;0.20;;;31.10;82.90;;;;;;4934296;29;20526;-76
2023/03/01 13:47:57;;;;;;;0.20;0.20;;;32.10;79.90;;;;;;4936732;29;20122;-75
2023/03/01 13:50:47;;;;;;;0.20;0.20;;;32.10;75.60;;;;;;4930316;28;20083;-78
2023/03/01 13:57:21;;;;;;;0.20;0.20;;;32.60;68.20;;;;;;4909104;29;20091;-76
2023/03/01 14:00:13;;;;;;;;;;;33.90;65.20;;;;;;4924019;28;20892;-76
2023/03/01 14:16:47;;;;;;;0.20;0.20;;;29.70;60.00;;;;;;4937522;29;20054;-75
2023/03/01 14:19:48;;;;;;;0.20;0.20;;;29.40;60.50;;;;;;4861381;29;20825;-75
2023/03/01 14:22:35;;;;;;;0.20;0.20;;;29.20;59.10;;;;;;4859201;29;20048;-76
2023/03/01 14:25:05;;;;;;;0.20;0.20;;;;;;;;;;4877733;29;20317;-75
2023/03/01 14:27:51;;;;;;;0.20;0.20;;;;;;;;;;4887537;29;20405;-76
2023/03/01 14:33:27;;;;;;;0.20;0.20;;;;;;;;;;4918817;23;20471;-75
2023/03/01 14:36:16;;;;;;;0.20;0.20;;;;;;;;;;4922491;29;20051;-77
2023/03/01 14:39:04;;;;;;;0.30;0.30;;;;;;;;;;4921639;29;20444;-77
2023/03/01 14:47:22;;;;;;;0.20;0.20;;;;;;;;;;5070636;23;20048;-75
2023/03/01 14:50:15;;;;;;;0.20;0.20;;;;;;;;;;4934402;28;20065;-75
2023/03/01 14:52:43;;;;;;;0.20;0.20;;;;;;;;;;4946124;29;20054;-75
2023/03/01 14:55:46;;;;;;;0.30;0.30;;;;;;;;;;4940795;28;20613;-76
2023/03/01 14:58:34;;;;;;;0.20;0.20;;;;;;;;;;4881732;29;20139;-75
2023/03/01 15:01:30;;;;;;;0.20;0.20;;;;;;;;;;4927120;28;20522;-75
2023/03/01 15:04:17;;;;;;;0.10;0.10;;;;;;;;;;4927004;28;20158;-77
2023/03/01 15:06:44;;;;;;;0.10;0.10;;;;;;;;;;4925588;28;20110;-75
2023/03/01 15:09:17;;;;;;;0.20;0.20;;;;;;;;;;4926075;29;20058;-75
2023/03/01 15:11:58;;;;;;;0.20;0.20;;;;;;;;;;4927362;28;20758;-76
2023/03/01 15:14:48;;;;;;;0.20;0.20;;;;;;;;;;4946242;28;20271;-75
2023/03/01 15:34:16;;;;;;;0.20;0.20;;;;;;;;;;4935740;29;20184;-76
2023/03/01 15:37:08;;;;;;;0.20;0.20;;;;;;;;;;4918866;29;20142;-75
2023/03/01 15:40:05;;;;;;;0.20;0.20;;;;;;;;;;4918515;29;20649;-75
2023/03/01 15:45:21;;;;;;;0.20;0.20;;;;;;;;;;4941735;23;20219;-77
2023/03/01 15:48:01;;;;;;;0.10;0.10;;;;;;;;;;4935569;29;20491;-75
2023/03/01 15:50:39;;;;;;;0.20;0.20;;;;;;;;;;4936322;28;20066;-75
2023/03/01 15:56:23;;;;;;;0.17;0.17;;;;;;;;;;4924400;29;20134;-75
2023/03/01 15:58:50;;;;;;;0.20;0.20;;;;;;;;;;4927702;29;20050;-75
2023/03/01 16:01:16;;;;;;;0.20;0.20;;;;;;;;;;4935265;28;20055;-76
2023/03/01 16:03:49;;;;;;;0.15;0.15;;;;;;;;;;4946510;28;20082;-77
2023/03/01 16:06:54;;;;;;;0.20;0.20;;;;;;;;;;4924097;29;20186;-75
2023/03/01 16:15:18;;;;;;;0.17;0.17;;;;;;;;;;4933646;23;20066;-73
2023/03/01 16:17:46;;;;;;;0.20;0.20;;;;;;;;;;4931860;29;20059;-74
2023/03/01 16:20:31;;;;;;;0.10;0.10;;;;;;;;;;5041748;23;20059;-75
2023/03/01 16:23:25;;;;;;;0.10;0.10;;;;;;;;;;4953145;28;20074;-75
2023/03/01 16:29:20;;;;;;;0.20;0.20;;;;;;;;;;4948143;28;20066;-75
2023/03/01 16:31:53;;;;;;;0.20;0.20;;;;;;;;;;4934791;29;20680;-74
2023/03/01 16:34:34;;;;;;;0.20;0.20;;;;;;;;;;4931444;28;20129;-74
2023/03/01 16:42:39;;;;;;;0.20;0.20;;;;;;;;;;4944357;28;20055;-75
2023/03/01 16:45:24;;;;;;;0.20;0.20;;;;;;;;;;4940128;29;20559;-75
2023/03/01 16:47:51;;;;;;;0.20;0.20;;;;;;;;;;4940289;28;20054;-76
2023/03/01 16:50:17;;;;;;;0.20;0.20;;;;;;;;;;4937322;29;20411;-75
2023/03/01 16:52:43;;;;;;;0.20;0.20;;;;;;;;;;4941614;28;20053;-75
2023/03/01 16:55:22;;;;;;;0.20;0.20;;;;;;;;;;4939899;29;20043;-75
2023/03/01 16:57:57;;;;;;;0.20;0.20;;;;;;;;;;4939533;28;20050;-75
2023/03/01 17:00:23;;;;;;;0.20;0.20;;;;;;;;;;4938436;29;20160;-75
2023/03/01 17:02:51;;;;;;;0.20;0.20;;;;;;;;;;4938590;29;20075;-74
2023/03/01 17:05:24;;;;;;;0.10;0.10;;;;;;;;;;4939601;28;20164;-75
2023/03/01 17:08:06;;;;;;;0.20;0.20;;;;;;;;;;4937726;28;20039;-74
2023/03/01 17:10:57;;;;;;;0.10;0.10;;;;;;;;;;4937727;28;20809;-74
2023/03/01 17:13:43;;;;;;;0.20;0.20;;;;;;;;;;4994448;23;22262;-75
2023/03/01 17:16:11;;;;;;;0.10;0.10;;;;;;;;;;4939754;28;20719;-74
2023/03/01 17:18:37;;;;;;;0.20;0.20;;;;;;;;;;4951158;28;20094;-75
2023/03/01 17:21:04;;;;;;;0.20;0.20;;;;;;;;;;4942392;28;20047;-76
2023/03/01 17:23:30;;;;;;;0.20;0.20;;;;;;;;;;4940885;28;20616;-75
2023/03/01 17:28:32;;;;;;;0.20;0.20;;;;;;;;;;4938123;23;20091;-77
2023/03/01 17:30:59;;;;;;;0.20;0.20;;;;;;;;;;4962736;28;20051;-76
2023/03/01 17:33:25;;;;;;;0.20;0.20;;;;;;;;;;4959560;28;20047;-77
2023/03/01 17:35:51;;;;;;;0.13;0.13;;;;;;;;;;4940886;28;20406;-76
2023/03/01 17:38:18;;;;;;;0.20;0.20;;;;;;;;;;4956625;28;20056;-76
2023/03/01 17:40:47;;;;;;;0.13;0.13;;;;;;;;;;4930206;28;20043;-77
2023/03/01 17:43:28;;;;;;;0.20;0.20;;;;;;;;;;4938039;28;20055;-74
2023/03/01 17:45:54;;;;;;;0.20;0.20;;;;;;;;;;5114474;23;20051;-75
2023/03/01 17:48:20;;;;;;;0.20;0.20;;;;;;;;;;4915509;28;20118;-75
2023/03/01 17:50:50;;;;;;;0.20;0.20;;;;;;;;;;4918001;29;20531;-76
2023/03/01 17:53:19;;;;;;;0.20;0.20;;;;;;;;;;4918274;29;20040;-77
2023/03/01 17:55:52;;;;;;;0.20;0.20;;;;;;;;;;4920408;29;20106;-76
2023/03/01 17:58:34;;;;;;;0.20;0.20;;;;;;;;;;4926490;29;20555;-76
2023/03/01 18:01:22;;;;;;;0.20;0.20;;;;;;;;;;4907854;29;20054;-75
2023/03/01 18:03:54;;;;;;;0.20;0.20;;;;;;;;;;4901489;29;20986;-75
2023/03/01 18:06:32;;;;;;;0.20;0.20;;;;;;;;;;4917254;29;20319;-75
2023/03/01 18:09:03;;;;;;;0.20;0.20;;;;;;;;;;4906534;29;20483;-76
2023/03/01 18:11:29;;;;;;;0.20;0.20;;;;;;;;;;4906293;29;20346;-75
2023/03/01 18:13:56;;;;;;;0.20;0.20;;;;;;;;;;4908158;29;20425;-76
2023/03/01 18:16:30;;;;;;;0.20;0.20;;;;;;;;;;4906389;29;20134;-76
2023/03/01 18:19:10;;;;;;;0.20;0.20;;;;;;;;;;4905593;29;20119;-74
2023/03/01 18:21:55;;;;;;;0.20;0.20;;;;;;;;;;4919287;29;20051;-76
2023/03/01 18:24:21;;;;;;;0.20;0.20;;;;;;;;;;4906796;29;20864;-76
2023/03/01 18:26:48;;;;;;;0.20;0.20;;;;;;;;;;4924765;29;20056;-76
2023/03/01 18:29:32;;;;;;;0.20;0.20;;;;;;;;;;4902482;29;20574;-76
2023/03/01 18:32:06;;;;;;;0.20;0.20;;;;;;;;;;4908024;29;20040;-75
2023/03/01 18:34:33;;;;;;;0.10;0.10;;;;;;;;;;4915161;29;20051;-75
2023/03/01 18:36:59;;;;;;;0.20;0.20;;;;;;;;;;4904087;29;20058;-76
2023/03/01 18:39:32;;;;;;;0.20;0.20;;;;;;;;;;4915029;29;20044;-76
2023/03/01 18:41:58;;;;;;;0.20;0.20;;;;;;;;;;4908243;29;20131;-75
2023/03/01 18:44:24;;;;;;;0.20;0.20;;;;;;;;;;4905860;29;20043;-76
2023/03/01 18:46:51;;;;;;;0.20;0.20;;;;;;;;;;4932672;23;20089;-77
2023/03/01 18:49:18;;;;;;;0.10;0.10;;;;;;;;;;4941062;28;20059;-77
2023/03/01 18:51:44;;;;;;;0.20;0.20;;;;;;;;;;4939450;28;20067;-74
2023/03/01 18:54:13;;;;;;;0.20;0.20;;;;;;;;;;4940359;29;20050;-77
2023/03/01 18:56:54;;;;;;;0.20;0.20;;;;;;;;;;4936418;29;20138;-79
2023/03/01 18:59:27;;;;;;;0.20;0.20;;;;;;;;;;4937217;29;20050;-79
2023/03/01 19:01:54;;;;;;;0.20;0.20;;;;;;;;;;4940183;28;20137;-77
2023/03/01 19:04:20;;;;;;;0.20;0.20;;;;;;;;;;4940411;29;20049;-77
2023/03/01 19:06:46;;;;;;;0.20;0.20;;;;;;;;;;4937690;29;20050;-78
2023/03/01 19:09:31;;;;;;;0.20;0.20;;;;;;;;;;4940057;28;20087;-77
2023/03/01 19:12:02;;;;;;;0.20;0.20;;;;;;;;;;4935229;29;20123;-78
2023/03/01 19:14:29;;;;;;;0.20;0.20;;;;;;;;;;4939750;29;20047;-75
2023/03/01 19:17:13;;;;;;;0.20;0.20;;;;;;;;;;4940951;28;20117;-77
2023/03/01 19:19:39;;;;;;;0.20;0.20;;;;;;;;;;4950791;28;20057;-77
2023/03/01 19:22:11;;;;;;;0.20;0.20;;;;;;;;;;4942815;28;20150;-75
2023/03/01 19:24:40;;;;;;;0.20;0.20;;;;;;;;;;4938929;28;20058;-75
2023/03/01 19:27:07;;;;;;;0.20;0.20;;;;;;;;;;4936653;28;20558;-77
2023/03/01 19:29:48;;;;;;;0.10;0.10;;;;;;;;;;4939674;28;20538;-75
2023/03/01 19:32:20;;;;;;;0.20;0.20;;;;;;;;;;4936994;28;20077;-74
2023/03/01 19:34:50;;;;;;;0.20;0.20;;;;;;;;;;4927884;28;20050;-74
2023/03/01 19:37:16;;;;;;;0.20;0.20;;;;;;;;;;4985148;23;20143;-75
2023/03/01 19:39:42;;;;;;;0.20;0.20;;;;;;;;;;4916241;29;20463;-75
2023/03/01 19:42:11;;;;;;;0.20;0.20;;;;;;;;;;4942858;29;20051;-76
2023/03/01 19:44:38;;;;;;;0.20;0.20;;;;;;;;;;4923229;29;20829;-76
2023/03/01 19:47:04;;;;;;;0.20;0.20;;;;;;;;;;4911704;29;20083;-75
2023/03/01 19:49:31;;;;;;;0.20;0.20;;;;;;;;;;4915989;29;20124;-76
2023/03/01 19:51:57;;;;;;;0.20;0.20;;;;;;;;;;4918053;29;20119;-76
2023/03/01 19:54:23;;;;;;;0.20;0.20;;;;;;;;;;4932607;29;20047;-75
2023/03/01 19:56:50;;;;;;;0.10;0.10;;;;;;;;;;4911469;29;20130;-75
2023/03/01 19:59:22;;;;;;;0.20;0.20;;;;;;;;;;4933418;28;20134;-76
2023/03/01 20:01:48;;;;;;;0.20;0.20;;;;;;;;;;4926727;29;20078;-76
2023/03/01 20:04:14;;;;;;;0.20;0.20;;;;;;;;;;4924710;29;20052;-81
2023/03/01 20:06:41;;;;;;;0.20;0.20;;;;;;;;;;4898920;29;20052;-81
2023/03/01 20:09:08;;;;;;;0.20;0.20;;;;;;;;;;4928479;29;20051;-80
2023/03/01 20:11:37;;;;;;;0.13;0.13;;;;;;;;;;4926645;28;20059;-80
2023/03/01 20:14:11;;;;;;;0.20;0.20;;;;;;;;;;4921543;29;20067;-79
2023/03/01 20:16:40;;;;;;;0.20;0.20;;;;;;;;;;4923756;29;20057;-80
2023/03/01 20:19:06;;;;;;;0.17;0.17;;;;;;;;;;4934503;29;20522;-81
2023/03/01 20:21:33;;;;;;;0.20;0.20;;;;;;;;;;4938878;29;20135;-78
2023/03/01 20:24:05;;;;;;;0.20;0.20;;;;;;;;;;4927193;29;20048;-79
2023/03/01 20:26:31;;;;;;;0.20;0.20;;;;;;;;;;4940526;29;20054;-81
2023/03/01 20:28:58;;;;;;;0.20;0.20;;;;;;;;;;4943052;29;20051;-82
2023/03/01 20:31:28;;;;;;;0.20;0.20;;;;;;;;;;4906888;29;20052;-80
2023/03/01 20:33:58;;;;;;;0.20;0.20;;;;;;;;;;4921161;29;20055;-80
2023/03/01 20:36:24;;;;;;;0.10;0.10;;;;;;;;;;4922619;29;20067;-79
2023/03/01 20:39:10;;;;;;;0.20;0.20;;;;;;;;;;4927743;29;20047;-80
2023/03/01 20:41:36;;;;;;;0.20;0.20;;;;;;;;;;4933168;29;20197;-80
2023/03/01 20:44:05;;;;;;;0.20;0.20;;;;;;;;;;4922562;29;20051;-80
2023/03/01 20:46:35;;;;;;;0.20;0.20;;;;;;;;;;4921137;29;20099;-81
2023/03/01 20:49:01;;;;;;;0.20;0.20;;;;;;;;;;4929137;23;20058;-81
2023/03/01 20:51:28;;;;;;;0.20;0.20;;;;;;;;;;4939956;28;20086;-81
2023/03/01 20:53:54;;;;;;;0.20;0.20;;;;;;;;;;4925136;28;20063;-81
2023/03/01 20:56:21;;;;;;;0.20;0.20;;;;;;;;;;4928708;28;20529;-80
2023/03/01 20:58:47;;;;;;;0.20;0.20;;;;;;;;;;4957126;28;20443;-81
2023/03/01 21:01:18;;;;;;;0.20;0.20;;;;;;;;;;4937884;28;20090;-81
2023/03/01 21:03:44;;;;;;;0.13;0.13;;;;;;;;;;4940095;28;20388;-82
2023/03/01 21:06:10;;;;;;;0.20;0.20;;;;;;;;;;4954625;28;20512;-80
2023/03/01 21:08:37;;;;;;;0.20;0.20;;;;;;;;;;4987813;23;20427;-82
2023/03/01 21:11:17;;;;;;;0.20;0.20;;;;;;;;;;4939830;29;20055;-80
2023/03/01 21:20:35;;;;;;;;;;;;;;;;;;;;;
2023/03/01 21:23:39;;;;;;;0.20;0.20;;;;;;;;;;4917671;29;20203;-79
2023/03/01 21:26:22;;;;;;;0.20;0.20;;;;;;;;;;4889940;29;20417;-80
2023/03/01 21:29:07;;;;;;;0.20;0.20;;;;;;;;;;4942544;23;20058;31
2023/03/01 21:31:37;;;;;;;0.20;0.20;;;;;;;;;;4943404;29;20392;-80
2023/03/01 21:34:04;;;;;;;0.20;0.20;;;;;;;;;;4943449;28;20503;-80
2023/03/01 21:36:52;;;;;;;0.20;0.20;;;;;;;;;;4940175;28;20047;-80
2023/03/01 21:42:49;;;;;;;0.20;0.20;;;;;;;;;;4943720;29;20559;-79
2023/03/01 21:45:41;;;;;;;0.20;0.20;;;;;;;;;;4942359;28;20043;-80
2023/03/01 21:56:33;;;;;;;0.20;0.20;;;;;;;;;;4963242;28;20101;-79
2023/03/01 22:02:08;;;;;;;0.20;0.20;;;;;;;;;;4967196;28;20046;-79
2023/03/01 22:07:41;;;;;;;0.20;0.20;;;;;;;;;;4958988;28;20069;-80
2023/03/01 22:10:07;;;;;;;0.20;0.20;;;;;;;;;;4957927;28;20120;-79
2023/03/01 22:12:36;;;;;;;0.20;0.20;;;;;;;;;;4965517;28;20047;-80
2023/03/01 22:15:32;;;;;;;0.20;0.20;;;;;;;;;;4972918;28;20078;-79
2023/03/01 22:17:58;;;;;;;0.20;0.20;;;;;;;;;;4971190;28;20043;-79
2023/03/01 22:20:24;;;;;;;0.20;0.20;;;;;;;;;;4955091;28;20046;-80
2023/03/01 22:23:08;;;;;;;0.20;0.20;;;;;;;;;;4961938;28;20077;-79
2023/03/01 22:28:40;;;;;;;0.20;0.20;;;;;;;;;;4966271;23;20066;-80
2023/03/01 22:31:16;;;;;;;0.20;0.20;;;;;;;;;;4953079;28;20554;-79
2023/03/01 22:33:43;;;;;;;0.20;0.20;;;;;;;;;;4956775;28;20696;-78
2023/03/01 22:39:35;;;;;;;0.20;0.20;;;;;;;;;;4922579;29;20050;-80
2023/03/01 22:42:19;;;;;;;0.20;0.20;;;;;;;;;;4943846;29;20088;-79
2023/03/01 22:44:48;;;;;;;0.20;0.20;;;;;;;;;;4921940;29;20047;-79
2023/03/01 22:47:20;;;;;;;0.20;0.20;;;;;;;;;;4930674;29;20049;-79
2023/03/01 22:50:06;;;;;;;0.20;0.20;;;;;;;;;;4919598;28;20059;-78
2023/03/01 22:52:32;;;;;;;0.20;0.20;;;;;;;;;;4933013;29;20054;-78
2023/03/01 22:54:59;;;;;;;0.20;0.20;;;;;;;;;;4944073;29;20099;-78
2023/03/01 22:57:25;;;;;;;0.17;0.17;;;;;;;;;;4925877;29;20048;-79
2023/03/01 22:59:51;;;;;;;0.20;0.20;;;;;;;;;;4914305;29;20146;-79
2023/03/01 23:02:21;;;;;;;0.15;0.15;;;;;;;;;;4927178;29;20058;-76
2023/03/01 23:04:47;;;;;;;0.20;0.20;;;;;;;;;;4929261;28;20482;-75
2023/03/01 23:07:13;;;;;;;0.10;0.10;;;;;;;;;;4915142;29;20718;-75
2023/03/01 23:09:39;;;;;;;0.20;0.20;;;;;;;;;;4932390;23;20048;-76
2023/03/01 23:12:08;;;;;;;0.20;0.20;;;;;;;;;;4943209;29;20054;-75
2023/03/01 23:14:35;;;;;;;0.20;0.20;;;;;;;;;;4927794;28;20059;-75
2023/03/01 23:17:01;;;;;;;0.20;0.20;;;;;;;;;;5019871;23;20093;-75
2023/03/01 23:19:52;;;;;;;0.20;0.20;;;;;;;;;;4941653;28;20090;-75
2023/03/01 23:22:19;;;;;;;0.20;0.20;;;;;;;;;;4959100;28;20086;-76
2023/03/01 23:25:09;;;;;;;0.20;0.20;;;;;;;;;;4943852;28;20086;-75
2023/03/01 23:27:36;;;;;;;0.20;0.20;;;;;;;;;;4945576;28;20821;-75
2023/03/01 23:30:14;;;;;;;0.20;0.20;;;;;;;;;;4940817;28;20118;-75
2023/03/01 23:35:54;;;;;;;0.20;0.20;;;;;;;;;;4940576;29;20051;-75
2023/03/01 23:38:23;;;;;;;0.20;0.20;;;;;;;;;;4935096;28;20055;-75
2023/03/01 23:40:49;;;;;;;0.20;0.20;;;;;;;;;;4933437;29;20217;-76
2023/03/01 23:43:16;;;;;;;0.20;0.20;;;;;;;;;;4940291;28;20134;-75
2023/03/01 23:45:42;;;;;;;0.20;0.20;;;;;;;;;;4929035;29;20055;-76
2023/03/01 23:48:12;;;;;;;0.20;0.20;;;;;;;;;;4934355;28;20547;-75
2023/03/01 23:50:40;;;;;;;0.20;0.20;;;;;;;;;;4926753;28;20055;-75
2023/03/01 23:53:15;;;;;;;0.20;0.20;;;;;;;;;;4932909;29;20167;-75
2023/03/01 23:55:45;;;;;;;0.20;0.20;;;;;;;;;;4924414;28;20507;-75
2023/03/01 23:58:11;;;;;;;0.20;0.20;;;;;;;;;;4930041;29;20042;-75
